This is the latest recevied weather packets stored in our database for station/object KF0PEC-15. If no packets are shown the sender has not sent any weather packets the latest 1 day(s).
| Time | Temp. | Humidity | Pressure | Rain* | Wind** | Luminosity | Snow |
|---|---|---|---|---|---|---|---|
| 1777997661 | 3.89° C | 85% | 1019.4 hPa | 0 mm | 0.89 m/s, 60° | 373 W/m² | - |
| 1777997182 | 3.89° C | 85% | 1019.3 hPa | 0 mm | 0.89 m/s, 41° | 370 W/m² | - |
| 1777996620 | 3.89° C | 85% | 1019.2 hPa | 0 mm | 0.89 m/s, 98° | 313 W/m² | - |
| 1777996089 | 3.89° C | 84% | 1019.1 hPa | 0 mm | 1.34 m/s, 74° | 294 W/m² | - |
| 1777995580 | 3.89° C | 84% | 1019.2 hPa | 0 mm | 1.34 m/s, 101° | 293 W/m² | - |
| 1777995035 | 3.89° C | 84% | 1019.1 hPa | 0 mm | 1.34 m/s, 87° | 227 W/m² | - |
| 1777994464 | 4.44° C | 82% | 1019 hPa | 0 mm | 1.34 m/s, 36° | 243 W/m² | - |
| 1777993969 | 4.44° C | 80% | 1018.6 hPa | 0 mm | 1.34 m/s, 57° | 206 W/m² | - |
| 1777993375 | 5° C | 80% | 1018.3 hPa | 0 mm | 0.89 m/s, 104° | 225 W/m² | - |
| 1777992860 | 5.56° C | 80% | 1017.9 hPa | 0 mm | 1.79 m/s, 70° | 206 W/m² | - |
| 1777992260 | 5.56° C | 80% | 1017.9 hPa | 0 mm | 1.34 m/s, 112° | 204 W/m² | - |
| 1777991780 | 5.56° C | 80% | 1017.8 hPa | 0 mm | 1.34 m/s, 125° | 185 W/m² | - |
| 1777991209 | 5.56° C | 80% | 1017.7 hPa | 0 mm | 1.79 m/s, 119° | 170 W/m² | - |
| 1777990699 | 5.56° C | 80% | 1017.6 hPa | 0 mm | 1.34 m/s, 137° | 191 W/m² | - |
| 1777990100 | 5.56° C | 80% | 1017.5 hPa | 0 mm | 1.34 m/s, 130° | 226 W/m² | - |
| 1777989599 | 6.11° C | 79% | 1017.4 hPa | 0 mm | 1.34 m/s, 126° | 230 W/m² | - |
| 1777989033 | 6.11° C | 80% | 1017.4 hPa | 0 mm | 1.34 m/s, 140° | 229 W/m² | - |
| 1777988465 | 6.11° C | 79% | 1017.1 hPa | 0 mm | 1.34 m/s, 147° | 206 W/m² | - |
| 1777987969 | 6.11° C | 79% | 1017 hPa | 0 mm | 1.79 m/s, 134° | 294 W/m² | - |
| 1777987485 | 6.11° C | 79% | 1016.6 hPa | 0 mm | 1.79 m/s, 131° | 328 W/m² | - |
| 1777986990 | 6.11° C | 78% | 1016.5 hPa | 0 mm | 1.79 m/s, 136° | 285 W/m² | - |
| 1777986441 | 6.11° C | 79% | 1016.4 hPa | 0 mm | 2.24 m/s, 136° | 231 W/m² | - |
| 1777985899 | 6.11° C | 79% | 1016.2 hPa | 0 mm | 2.24 m/s, 158° | 230 W/m² | - |
| 1777985419 | 6.67° C | 79% | 1016 hPa | 0 mm | 2.24 m/s, 148° | 189 W/m² | - |
| 1777984849 | 6.67° C | 78% | 1015.8 hPa | 0 mm | 1.79 m/s, 147° | 169 W/m² | - |
* Rain latest hour (hover to see other rain measurements)
** Current wind speed in m/s (hover to see current wind gust speed)